METAR & TAF Report
Available data for CYAM from the past 6 hours
SAULT STE MARIE, ON
Metar
CYAM 201506Z 07005KT 3SM BR OVC005 18/18 A2998 RMK ST8 VIS N-E 1 1/2 CIG 3-7 SLP156 DENSITY ALT 1100FT

15:06 UTC

Wind: 70° 5kt

Visibility: 3 SM

Sky: OVC 500 ft

Temp: 18 deg C / 64.4 deg F

Dewpoint: 18 deg C / 64.4 deg F

Pressure: 29.98 inHg

TAF
TAF AMD CYAM 201512Z 2015/2102 VRB03KT 3SM BR BKN005 BECMG 2015/2016 P6SM NSW FEW005 FM201600 24010KT P6SM SCT040 FM210000 22005KT P6SM FEW040 BKN100 RMK NXT FCST BY 202000Z
NOTAM

Click here for NOTAMs.